Time;durP1;ratioP1;P1;durP2;ratioP2;P2;SDS_P1;SDS_P2;PMS_P1;PMS_P2;Temp;Humidity;BMP_temperature;BMP_pressure;BME280_temperature;BME280_humidity;BME280_pressure;Samples;Min_cycle;Max_cycle;Signal;HPM_P1;HPM_P2
2023/01/26 06:29:25;;;;;;;;;62.50;50.50;;;;;1.41;100.00;101923.66;5653091;23;49738;-68
2023/01/26 06:31:51;;;;;;;;;55.50;44.50;;;;;2.86;100.00;102170.31;4991223;28;51136;-72
2023/01/26 06:34:17;;;;;;;;;58.25;47.50;;;;;3.03;100.00;102197.50;4990258;28;50012;-62
2023/01/26 06:36:42;;;;;;;;;64.25;45.50;;;;;2.96;100.00;102177.06;4990145;28;50005;-62
2023/01/26 06:39:10;;;;;;;;;51.75;44.75;;;;;3.29;100.00;102252.22;4990750;28;49700;-63
2023/01/26 06:41:36;;;;;;;;;62.75;49.75;;;;;2.85;100.00;102187.56;4991220;28;49900;-80
2023/01/26 06:44:01;;;;;;;;;61.25;47.00;;;;;3.19;100.00;102270.50;4973354;28;49959;-75
2023/01/26 06:46:26;;;;;;;;;62.25;46.25;;;;;2.34;100.00;102108.50;4991658;28;49862;-70
2023/01/26 06:48:52;;;;;;;;;60.25;46.25;;;;;2.43;100.00;102125.63;4991844;28;49866;-71
2023/01/26 06:51:18;;;;;;;;;67.00;48.75;;;;;3.25;100.00;102260.56;4990876;28;49945;-70
2023/01/26 06:53:50;;;;;;;;;61.00;45.25;;;;;2.44;100.00;102113.56;4992002;28;49944;-71
2023/01/26 06:56:16;;;;;;;;;58.25;45.75;;;;;3.05;100.00;102234.81;4994625;28;49795;-70
2023/01/26 06:58:41;;;;;;;;;51.75;45.50;;;;;2.51;100.00;102124.53;4994205;28;50102;-80
2023/01/26 07:01:08;;;;;;;;;64.00;50.25;;;;;2.30;100.00;102089.19;4991746;28;50693;-74
2023/01/26 07:03:33;;;;;;;;;65.75;47.25;;;;;3.15;100.00;102248.59;4990676;28;49765;-66
2023/01/26 07:05:59;;;;;;;;;65.50;48.75;;;;;2.93;100.00;102210.56;4991937;28;49923;-64
2023/01/26 07:08:24;;;;;;;;;64.75;48.00;;;;;2.79;100.00;102212.13;4973154;28;49707;-69
2023/01/26 07:10:49;;;;;;;;;65.50;52.75;;;;;2.72;100.00;102173.56;4989021;28;57569;-74
2023/01/26 07:13:17;;;;;;;;;65.25;47.25;;;;;2.41;100.00;102129.78;4988258;28;49755;-76
2023/01/26 07:15:43;;;;;;;;;67.00;51.00;;;;;2.97;100.00;102230.75;4977852;28;50073;-79
2023/01/26 07:18:08;;;;;;;;;68.75;50.75;;;;;2.91;100.00;102230.31;4989970;28;49858;-79
2023/01/26 07:20:35;;;;;;;;;59.25;50.00;;;;;2.77;100.00;102199.03;4989781;28;50728;-78
2023/01/26 07:23:00;;;;;;;;;64.50;52.75;;;;;2.65;100.00;102172.19;4989132;28;49775;-72
2023/01/26 07:25:26;;;;;;;;;61.00;47.25;;;;;2.82;100.00;102225.34;4991146;28;49655;-78
2023/01/26 07:27:58;;;;;;;;;59.00;44.50;;;;;2.94;100.00;102221.06;4995583;28;49944;-77
2023/01/26 07:30:24;;;;;;;;;65.00;52.50;;;;;2.79;100.00;102205.22;4988945;28;49887;-75
2023/01/26 07:32:50;;;;;;;;;62.50;49.50;;;;;2.83;100.00;102204.69;4988896;28;49813;-73
2023/01/26 07:35:15;;;;;;;;;65.50;49.75;;;;;2.82;100.00;102195.13;4990196;28;49878;-74
2023/01/26 07:37:41;;;;;;;;;52.00;43.75;;;;;2.83;100.00;102175.28;4990430;28;49754;-66
2023/01/26 07:40:07;;;;;;;;;58.25;42.75;;;;;2.85;100.00;102176.28;4990292;28;50566;-76
2023/01/26 07:42:32;;;;;;;;;67.50;50.50;;;;;3.05;100.00;102227.03;4989961;28;49793;-77
2023/01/26 07:44:58;;;;;;;;;62.50;48.00;;;;;2.68;100.00;102149.09;4990183;28;49770;-68
2023/01/26 07:47:24;;;;;;;;;64.75;50.50;;;;;3.10;100.00;102217.91;4975088;28;50030;-69
2023/01/26 07:49:49;;;;;;;;;57.00;45.00;;;;;3.32;100.00;102260.22;4989986;28;50403;-69
2023/01/26 07:52:15;;;;;;;;;60.75;47.50;;;;;2.86;100.00;102180.66;4989644;28;49897;-70
2023/01/26 07:54:40;;;;;;;;;66.50;51.25;;;;;2.75;100.00;102160.81;4990128;28;50003;-73
2023/01/26 07:57:08;;;;;;;;;73.75;55.00;;;;;2.90;100.00;102190.50;4991483;28;49702;-72
2023/01/26 07:59:33;;;;;;;;;63.50;49.25;;;;;3.31;100.00;102248.03;4971404;28;50197;-70
2023/01/26 08:01:59;;;;;;;;;58.25;47.25;;;;;3.44;100.00;102261.13;4989190;28;49926;-70
2023/01/26 08:04:24;;;;;;;;;62.25;50.75;;;;;3.26;100.00;102223.44;4971934;28;49983;-65
2023/01/26 08:06:50;;;;;;;;;59.75;46.25;;;;;2.97;100.00;102177.19;4990420;28;49592;-74
2023/01/26 08:09:16;;;;;;;;;66.50;49.50;;;;;3.10;100.00;102217.91;4990090;28;50209;-67
2023/01/26 08:11:41;;;;;;;;;57.50;45.50;;;;;2.69;100.00;102170.72;4997725;28;50384;-83
2023/01/26 08:14:06;;;;;;;;;65.00;46.75;;;;;2.93;100.00;102231.31;4997852;28;49985;-80
2023/01/26 08:16:32;;;;;;;;;57.75;47.50;;;;;2.51;100.00;102165.06;4989861;28;49731;-78
2023/01/26 08:18:57;;;;;;;;;49.50;41.75;;;;;2.89;100.00;102237.94;4989620;28;51003;-79
2023/01/26 08:21:22;;;;;;;;;60.50;45.50;;;;;3.36;100.00;102303.78;4989995;28;49963;-77
2023/01/26 08:23:49;;;;;;;;;62.75;49.50;;;;;3.35;100.00;102294.19;4972018;28;49855;-72
2023/01/26 08:27:54;;;;;;;;;58.25;46.00;;;;;3.31;100.00;102274.00;5074070;27;49808;-76
2023/01/26 08:30:20;;;;;;;;;65.50;48.00;;;;;3.59;100.00;102276.03;5066589;28;49956;-77
2023/01/26 08:32:45;;;;;;;;;58.00;48.25;;;;;3.83;100.00;102295.06;5066405;28;49874;-78
2023/01/26 08:35:10;;;;;;;;;59.00;48.25;;;;;2.76;100.00;102082.25;5066695;27;49827;-77
2023/01/26 08:37:36;;;;;;;;;65.50;50.00;;;;;2.06;100.00;101953.56;5066400;27;49786;-77
2023/01/26 08:40:01;;;;;;;;;57.50;44.75;;;;;2.79;100.00;102130.03;5066776;27;49777;-77
2023/01/26 08:42:27;;;;;;;;;63.00;43.25;;;;;3.18;100.00;102154.47;5067003;28;49786;-78
2023/01/26 08:44:53;;;;;;;;;46.00;39.25;;;;;2.87;100.00;102121.13;5066541;28;49753;-78
2023/01/26 08:47:18;;;;;;;;;58.25;45.25;;;;;4.15;100.00;102349.34;5066843;28;49891;-77
2023/01/26 08:49:43;;;;;;;;;63.75;46.75;;;;;3.74;100.00;102251.16;5066904;28;50084;-79
2023/01/26 08:52:09;;;;;;;;;61.25;45.00;;;;;3.76;100.00;102259.03;5066626;27;49988;-77
2023/01/26 08:54:34;;;;;;;;;60.50;48.00;;;;;2.49;100.00;102056.09;5066126;28;50968;-77
2023/01/26 08:56:59;;;;;;;;;67.25;50.25;;;;;3.18;100.00;102162.28;5066580;28;49853;-77
2023/01/26 08:59:25;;;;;;;;;66.50;49.75;;;;;3.44;100.00;102210.88;5066539;28;49680;-75
2023/01/26 09:01:50;;;;;;;;;59.00;44.50;;;;;3.37;100.00;102204.34;5065181;28;49778;-76
2023/01/26 09:04:15;;;;;;;;;65.00;48.75;;;;;2.76;100.00;102087.41;5066310;28;50985;-79
2023/01/26 09:06:41;;;;;;;;;56.00;45.50;;;;;2.54;100.00;102049.56;5066460;27;49986;-77
2023/01/26 09:09:11;;;;;;;;;57.75;48.25;;;;;2.81;100.00;102128.47;5066295;28;50041;-78
2023/01/26 09:11:37;;;;;;;;;63.00;52.25;;;;;3.46;100.00;102235.25;5066220;28;50045;-78
2023/01/26 09:14:02;;;;;;;;;53.50;43.50;;;;;3.35;100.00;102192.94;5065771;28;49831;-77
2023/01/26 09:16:28;;;;;;;;;59.75;49.75;;;;;3.46;100.00;102180.75;5066249;28;50055;-76
2023/01/26 09:18:53;;;;;;;;;61.75;50.75;;;;;4.12;100.00;102329.25;5065075;27;50688;-78
2023/01/26 09:21:19;;;;;;;;;63.75;52.25;;;;;3.85;100.00;102264.91;5066433;27;49950;-77
2023/01/26 09:23:45;;;;;;;;;63.00;50.25;;;;;2.80;100.00;102112.81;5066170;28;50521;-78
2023/01/26 09:26:11;;;;;;;;;68.00;51.00;;;;;2.95;100.00;102125.97;5073495;27;49759;-77
2023/01/26 09:28:36;;;;;;;;;46.75;39.75;;;;;4.05;100.00;102331.28;5086067;27;49743;-77
2023/01/26 09:31:09;;;;;;;;;61.50;48.25;;;;;3.87;100.00;102290.22;5086751;27;49605;-78
2023/01/26 09:33:35;;;;;;;;;69.00;54.25;;;;;3.50;100.00;102220.81;5086047;27;50561;-78
2023/01/26 09:36:05;;;;;;;;;56.00;45.50;;;;;4.44;100.00;102354.94;5086612;27;49915;-77
2023/01/26 09:38:31;;;;;;;;;62.00;45.25;;;;;3.41;100.00;102150.97;5076350;27;49735;-78
2023/01/26 09:41:06;;;;;;;;;67.00;48.75;;;;;4.63;100.00;102361.41;5072731;27;50100;-78
2023/01/26 09:43:34;;;;;;;;;57.50;45.25;;;;;4.70;100.00;102364.56;5082484;27;49927;-76
2023/01/26 09:46:18;;;;;;;;;55.25;44.75;;;;;4.52;100.00;102329.47;5089121;27;49608;-76
2023/01/26 09:48:57;;;;;;;;;53.75;45.25;;;;;3.96;100.00;102241.50;5070563;27;49715;-75
2023/01/26 09:51:44;;;;;;;;;57.25;45.75;;;;;4.60;100.00;102367.31;5072379;27;49782;-74
2023/01/26 09:54:27;;;;;;;;;55.00;43.25;;;;;4.70;100.00;102363.66;5069781;27;50878;-75
2023/01/26 09:56:54;;;;;;;;;52.25;45.00;;;;;4.32;100.00;102265.66;5066891;27;49695;-74
2023/01/26 09:59:49;;;;;;;;;52.25;43.25;;;;;4.91;100.00;102343.41;5070854;28;50623;-75
2023/01/26 10:02:30;;;;;;;;;48.00;40.75;;;;;5.04;100.00;102356.50;5053526;28;49702;-74
2023/01/26 10:05:00;;;;;;;;;46.25;41.00;;;;;3.66;100.00;102166.59;5072533;27;50746;-76
2023/01/26 10:07:25;;;;;;;;;53.75;46.25;;;;;3.63;100.00;102143.00;5072196;28;49878;-73
2023/01/26 10:09:52;;;;;;;;;57.25;43.50;;;;;4.23;100.00;102208.72;5072274;28;49896;-78
2023/01/26 10:12:35;;;;;;;;;56.00;42.00;;;;;4.83;100.00;102310.00;5072350;27;50164;-73
2023/01/26 10:15:33;;;;;;;;;36.50;33.25;;;;;5.24;100.00;102368.28;5066003;28;50868;-72
2023/01/26 10:18:07;;;;;;;;;51.50;43.00;;;;;4.89;100.00;102305.19;5072036;27;49977;-74
2023/01/26 10:20:42;;;;;;;;;30.25;24.25;;;;;5.01;100.00;102318.13;5071940;27;50052;-74
2023/01/26 10:23:15;;;;;;;;;49.75;41.75;;;;;5.17;100.00;102323.56;5068020;27;49980;-74
2023/01/26 10:25:43;;;;;;;;;57.00;45.50;;;;;5.46;100.00;102366.28;5071340;28;49821;-73
2023/01/26 10:28:24;;;;;;;;;50.00;43.50;;;;;4.83;100.00;102252.75;5071982;28;49959;-73
2023/01/26 10:30:50;;;;;;;;;46.25;42.25;;;;;5.20;100.00;102296.84;5072037;27;49724;-74
2023/01/26 10:33:29;;;;;;;;;48.75;40.00;;;;;5.65;100.00;102360.59;5071806;27;50039;-73
2023/01/26 10:35:54;;;;;;;;;39.75;39.00;;;;;5.44;100.00;102334.94;5071902;27;49875;-77
2023/01/26 10:38:45;;;;;;;;;51.25;40.50;;;;;5.48;100.00;102336.03;5072070;27;49818;-70
2023/01/26 10:41:17;;;;;;;;;52.50;43.00;;;;;5.64;100.00;102364.91;5069840;28;49824;-75
2023/01/26 10:43:52;;;;;;;;;52.75;41.00;;;;;5.19;100.00;102279.41;5070799;27;49946;-75
2023/01/26 10:46:27;;;;;;;;;58.25;43.75;;;;;5.49;100.00;102326.53;5071249;28;51086;-78
2023/01/26 10:48:55;;;;;;;;;40.50;37.50;;;;;5.65;100.00;102342.38;5070631;28;49706;-79
2023/01/26 10:51:30;;;;;;;;;49.50;40.25;;;;;5.75;100.00;102355.19;5071882;28;49926;-69
2023/01/26 10:54:20;;;;;;;;;53.00;40.00;;;;;5.84;100.00;102360.13;5072281;27;49846;-74
2023/01/26 10:56:56;;;;;;;;;52.00;41.25;;;;;5.83;100.00;102353.09;5062416;27;50320;-76
2023/01/26 10:59:30;;;;;;;;;41.25;37.50;;;;;5.32;100.00;102262.94;5067128;28;50216;-74
2023/01/26 11:01:59;;;;;;;;;59.25;42.00;;;;;5.52;100.00;102280.75;5071386;27;49815;-70
2023/01/26 11:04:26;;;;;;;;;63.25;48.75;;;;;5.94;100.00;102344.31;5072023;27;49853;-70
2023/01/26 11:06:52;;;;;;;;;57.00;42.50;;;;;5.55;100.00;102259.22;5071584;28;50881;-80
2023/01/26 11:09:27;;;;;;;;;52.75;42.25;;;;;5.84;100.00;102290.66;5072080;28;49823;-72
2023/01/26 11:11:56;;;;;;;;;48.50;42.00;;;;;5.08;100.00;102179.78;5072633;27;49796;-89
2023/01/26 11:14:22;;;;;;;;;56.50;46.00;;;;;5.78;100.00;102255.47;5071639;27;49627;-71
2023/01/26 11:16:50;;;;;;;;;61.00;48.50;;;;;6.32;100.00;102336.31;5071688;27;50731;-69
2023/01/26 11:19:37;;;;;;;;;60.50;46.75;;;;;6.37;100.00;102332.31;5071696;28;49850;-68
2023/01/26 11:22:12;;;;;;;;;52.00;44.75;;;;;5.95;100.00;102232.31;5065467;28;49759;-73
2023/01/26 11:24:55;;;;;;;;;55.00;41.50;;;;;6.64;100.00;102321.75;5066144;28;49962;-70
2023/01/26 11:27:30;;;;;;;;;61.00;49.50;;;;;6.71;100.00;102321.34;5070884;28;50841;-77
2023/01/26 11:30:11;;;;;;;;;57.75;46.50;;;;;6.68;100.00;102319.44;5071766;28;49740;-69
2023/01/26 11:32:41;;;;;;;;;50.25;41.50;;;;;6.75;100.00;102313.75;5069995;28;49933;-75
2023/01/26 11:35:22;;;;;;;;;41.50;33.00;;;;;6.76;100.00;102314.69;5052738;28;50231;-66
2023/01/26 11:38:10;;;;;;;;;25.50;23.50;;;;;6.33;100.00;102259.88;5064981;28;50948;-72
2023/01/26 11:40:55;;;;;;;;;33.75;30.75;;;;;6.58;100.00;102322.28;5070772;27;49971;-66
2023/01/26 11:43:32;;;;;;;;;46.00;38.75;;;;;6.53;100.00;102292.41;5070538;28;49779;-68
2023/01/26 11:46:11;;;;;;;;;41.75;36.50;;;;;6.58;100.00;102306.63;5070448;28;49653;-70
2023/01/26 11:48:47;;;;;;;;;41.00;38.25;;;;;5.90;100.00;102270.22;5051867;28;52704;-70
2023/01/26 11:51:31;;;;;;;;;37.50;30.50;;;;;6.29;100.00;102292.69;5067715;27;49812;-77
2023/01/26 11:54:22;;;;;;;;;46.50;39.00;;;;;5.86;100.00;102236.00;5053130;28;49833;-79
2023/01/26 11:56:49;;;;;;;;;30.00;27.25;;;;;6.24;100.00;102351.47;5066765;27;49880;-74
2023/01/26 11:59:25;;;;;;;;;30.25;26.75;;;;;5.65;100.00;102239.06;5070222;27;49742;-75
2023/01/26 12:01:57;;;;;;;;;35.25;27.25;;;;;5.97;100.00;102297.56;5070523;27;49774;-75
2023/01/26 12:04:23;;;;;;;;;42.25;39.00;;;;;5.68;100.00;102283.53;5069890;28;49818;-74
2023/01/26 12:07:04;;;;;;;;;26.25;26.25;;;;;5.11;100.00;102193.00;5071353;28;50249;-74
2023/01/26 12:09:37;;;;;;;;;31.50;30.00;;;;;4.75;100.00;102126.44;5068835;28;50914;-74
2023/01/26 12:12:08;;;;;;;;;38.00;31.50;;;;;5.91;100.00;102320.66;5068036;28;49933;-74
2023/01/26 12:14:42;;;;;;;;;35.50;34.00;;;;;5.93;100.00;102338.19;5069675;27;49900;-74
2023/01/26 12:17:25;;;;;;;;;32.00;26.75;;;;;5.63;100.00;102287.56;5077865;28;49857;-74
2023/01/26 12:20:17;;;;;;;;;21.00;18.75;;;;;5.72;100.00;102295.06;5074179;28;50868;-74
2023/01/26 12:23:08;;;;;;;;;21.00;20.75;;;;;5.14;100.00;102229.66;5070418;28;49834;-74
2023/01/26 12:25:39;;;;;;;;;23.50;20.75;;;;;5.36;100.00;102278.84;5032854;28;49715;-74
2023/01/26 12:28:29;;;;;;;;;21.00;17.75;;;;;5.28;100.00;102243.56;5074564;28;49546;-74
2023/01/26 12:31:24;;;;;;;;;20.50;19.75;;;;;5.39;100.00;102293.75;5066804;27;49872;-73
2023/01/26 12:33:53;;;;;;;;;21.50;21.50;;;;;5.59;100.00;102292.47;5068815;28;49831;-74
2023/01/26 12:36:33;;;;;;;;;21.25;17.75;;;;;5.55;100.00;102287.88;5078343;28;49974;-74
2023/01/26 12:39:21;;;;;;;;;16.75;16.25;;;;;5.52;100.00;102282.47;5076446;28;49938;-74
2023/01/26 12:42:26;;;;;;;;;24.25;18.00;;;;;5.41;100.00;102271.34;5068581;27;51008;-74
2023/01/26 12:45:00;;;;;;;;;20.75;16.50;;;;;4.67;100.00;102144.94;5073626;27;49897;-74
2023/01/26 12:47:37;;;;;;;;;19.75;19.75;;;;;5.48;100.00;102286.56;5072877;28;49918;-73
2023/01/26 12:50:14;;;;;;;;;25.50;21.50;;;;;4.92;100.00;102189.09;5076049;28;49882;-74
2023/01/26 12:53:19;;;;;;;;;26.25;21.00;;;;;5.08;100.00;102207.53;5074358;28;49758;-74
2023/01/26 12:55:57;;;;;;;;;25.25;21.00;;;;;5.45;100.00;102275.94;5068590;28;49856;-72
2023/01/26 12:58:30;;;;;;;;;19.50;17.25;;;;;5.18;100.00;102223.84;5076127;28;49908;-76
2023/01/26 13:01:10;;;;;;;;;18.25;13.75;;;;;5.40;100.00;102260.03;5074842;27;49651;-72
2023/01/26 13:03:40;;;;;;;;;12.75;12.00;;;;;5.23;100.00;102231.06;5074679;28;50342;-73
2023/01/26 13:06:09;;;;;;;;;26.75;21.25;;;;;5.49;100.00;102264.00;5078185;28;49617;-75
2023/01/26 13:08:34;;;;;;;;;21.25;17.00;;;;;5.52;100.00;102267.72;5074382;28;49791;-72
2023/01/26 13:11:05;;;;;;;;;27.75;24.25;;;;;4.40;100.00;102085.09;5056296;28;49966;-73
2023/01/26 13:13:51;;;;;;;;;17.00;16.75;;;;;5.01;100.00;102194.91;5069723;27;49726;-72
2023/01/26 13:16:17;;;;;;;;;20.25;14.00;;;;;5.38;100.00;102271.13;5076290;27;49939;-73
2023/01/26 13:18:53;;;;;;;;;20.75;18.00;;;;;4.96;100.00;102196.31;5079459;28;49324;-75
2023/01/26 13:21:37;;;;;;;;;21.00;17.00;;;;;5.38;100.00;102285.03;5076497;28;49916;-72
2023/01/26 13:24:25;;;;;;;;;19.25;17.00;;;;;5.24;100.00;102272.84;5084604;28;49905;-76
2023/01/26 13:26:57;;;;;;;;;17.00;16.00;;;;;4.94;100.00;102193.63;5071293;27;50007;-74
2023/01/26 13:29:28;;;;;;;;;16.75;16.75;;;;;5.50;100.00;102271.00;5077016;27;49795;-72
2023/01/26 13:31:59;;;;;;;;;21.50;17.75;;;;;5.05;100.00;102186.50;5076983;28;50041;-73
2023/01/26 13:34:42;;;;;;;;;21.00;20.50;;;;;4.72;100.00;102135.75;5082239;27;50545;-74
2023/01/26 13:37:32;;;;;;;;;20.00;19.00;;;;;5.39;100.00;102224.34;5074954;28;49905;-73
2023/01/26 13:40:17;;;;;;;;;16.50;15.00;;;;;5.53;100.00;102268.63;5069088;28;49712;-72
2023/01/26 13:42:48;;;;;;;;;26.50;20.50;;;;;4.82;100.00;102145.94;5054217;28;50123;-72
2023/01/26 13:45:28;;;;;;;;;18.25;17.25;;;;;5.52;100.00;102280.75;5075241;27;50391;-72
2023/01/26 13:47:56;;;;;;;;;22.00;17.50;;;;;5.19;100.00;102227.34;5069363;28;49616;-73
2023/01/26 13:50:28;;;;;;;;;19.75;18.25;;;;;5.45;100.00;102268.13;5072530;28;49628;-72
2023/01/26 13:52:54;;;;;;;;;15.00;12.75;;;;;4.70;100.00;102140.84;5076027;27;49731;-74
2023/01/26 13:55:28;;;;;;;;;16.25;15.50;;;;;4.15;100.00;102014.06;5082021;27;50479;-76
2023/01/26 13:58:13;;;;;;;;;17.25;15.50;;;;;5.59;100.00;102276.81;5075706;28;49699;-75
2023/01/26 14:00:39;;;;;;;;;20.50;20.50;;;;;5.30;100.00;102231.56;5072683;27;49552;-75
2023/01/26 14:03:04;;;;;;;;;20.50;18.00;;;;;4.96;100.00;102204.13;5080208;28;49585;-73
2023/01/26 14:05:31;;;;;;;;;21.50;20.25;;;;;5.38;100.00;102286.75;5079746;27;50271;-76
2023/01/26 14:07:57;;;;;;;;;16.50;13.75;;;;;4.79;100.00;102161.38;5079407;28;49743;-76
2023/01/26 14:10:22;;;;;;;;;23.75;21.00;;;;;4.96;100.00;102168.59;5077505;28;49845;-76
2023/01/26 14:12:51;;;;;;;;;21.75;17.50;;;;;5.28;100.00;102208.81;5078400;27;49815;-75
2023/01/26 14:15:34;;;;;;;;;25.00;20.25;;;;;5.41;100.00;102232.28;5075865;27;49892;-73
2023/01/26 14:18:04;;;;;;;;;23.00;19.75;;;;;4.35;100.00;102093.41;5076263;27;49884;-76
2023/01/26 14:20:38;;;;;;;;;17.75;17.75;;;;;5.55;100.00;102244.47;5080705;28;49672;-75
2023/01/26 14:23:08;;;;;;;;;17.50;17.50;;;;;5.63;100.00;102274.53;5067193;28;49760;-74
2023/01/26 14:25:35;;;;;;;;;19.50;17.50;;;;;5.05;100.00;102166.59;5065695;27;49874;-73
2023/01/26 14:28:01;;;;;;;;;17.50;16.25;;;;;5.03;100.00;102141.28;5073646;27;49817;-73
2023/01/26 14:30:32;;;;;;;;;20.50;20.25;;;;;5.74;100.00;102247.47;5053928;27;49823;-73
2023/01/26 14:33:13;;;;;;;;;18.25;18.00;;;;;5.26;100.00;102169.69;5072238;28;49909;-75
2023/01/26 14:35:38;;;;;;;;;16.75;16.25;;;;;5.12;100.00;102150.59;5071898;27;50980;-73
2023/01/26 14:38:27;;;;;;;;;21.75;20.50;;;;;5.87;100.00;102269.97;5071986;28;49900;-73
2023/01/26 14:40:55;;;;;;;;;20.25;18.50;;;;;5.66;100.00;102227.81;5072002;27;49980;-74
2023/01/26 14:43:22;;;;;;;;;20.50;19.00;;;;;5.92;100.00;102266.00;5054063;28;50106;-77
2023/01/26 14:45:58;;;;;;;;;23.25;20.50;;;;;5.98;100.00;102271.63;5071470;28;50872;-72
2023/01/26 14:48:34;;;;;;;;;19.25;19.25;;;;;5.40;100.00;102161.06;5071994;27;49863;-75
2023/01/26 14:51:05;;;;;;;;;18.00;17.00;;;;;5.82;100.00;102244.44;5069227;28;49812;-82
2023/01/26 14:53:31;;;;;;;;;14.25;14.25;;;;;5.59;100.00;102215.19;5072324;27;49914;-81
2023/01/26 14:55:56;;;;;;;;;14.25;14.00;;;;;5.49;100.00;102197.19;5071598;27;50104;-75
2023/01/26 14:58:26;;;;;;;;;18.50;17.50;;;;;5.26;100.00;102153.16;5071601;28;49759;-70
2023/01/26 15:00:52;;;;;;;;;17.50;17.50;;;;;6.01;100.00;102271.81;5072002;28;50023;-70
2023/01/26 15:03:32;;;;;;;;;19.50;19.50;;;;;5.83;100.00;102248.84;5072194;28;50134;-77
2023/01/26 15:06:14;;;;;;;;;18.25;17.50;;;;;5.99;100.00;102283.84;5087539;27;50877;-67
2023/01/26 15:08:41;;;;;;;;;14.00;14.00;;;;;5.71;100.00;102236.84;5087300;28;49659;-66
2023/01/26 15:13:54;;;;;;;;;17.25;16.25;;;;;5.96;100.00;102270.59;5073853;27;49982;-72
2023/01/26 15:16:24;;;;;;;;;17.00;17.00;;;;;6.07;100.00;102281.69;5067993;27;50033;-67
2023/01/26 15:19:05;;;;;;;;;16.50;16.50;;;;;5.58;100.00;102202.09;5070383;28;49710;-74
2023/01/26 15:21:38;;;;;;;;;14.75;14.75;;;;;6.05;100.00;102285.94;5069348;28;49809;-71
2023/01/26 15:24:11;;;;;;;;;15.00;14.25;;;;;5.72;100.00;102227.34;5066665;27;49743;-76
2023/01/26 15:26:37;;;;;;;;;19.75;19.00;;;;;6.02;100.00;102289.25;5069888;28;50995;-69
2023/01/26 15:29:06;;;;;;;;;19.75;17.25;;;;;5.89;100.00;102241.44;5070507;27;49889;-70
2023/01/26 15:31:31;;;;;;;;;17.50;16.25;;;;;6.13;100.00;102282.09;5070617;28;49756;-66
2023/01/26 15:34:02;;;;;;;;;19.00;18.25;;;;;6.11;100.00;102278.50;5070512;28;49802;-68
2023/01/26 15:36:47;;;;;;;;;18.00;14.50;;;;;6.16;100.00;102277.06;5069951;28;50022;-72
2023/01/26 15:39:15;;;;;;;;;22.75;21.00;;;;;6.16;100.00;102279.66;5064570;28;49700;-68
2023/01/26 15:41:42;;;;;;;;;20.50;17.75;;;;;5.59;100.00;102178.72;5064478;28;49802;-65
2023/01/26 15:44:14;;;;;;;;;19.50;18.00;;;;;6.16;100.00;102266.63;5065211;27;49934;-65
2023/01/26 15:46:39;;;;;;;;;18.25;15.00;;;;;6.09;100.00;102248.84;5070514;28;49978;-65
2023/01/26 15:49:05;;;;;;;;;24.00;23.50;;;;;6.03;100.00;102244.13;5070299;28;49749;-66
2023/01/26 15:51:30;;;;;;;;;14.50;14.50;;;;;6.25;100.00;102274.13;5070397;28;49958;-72
2023/01/26 15:53:55;;;;;;;;;22.00;20.00;;;;;6.02;100.00;102239.72;5071061;28;50200;-75
2023/01/26 15:56:21;;;;;;;;;22.75;17.25;;;;;6.30;100.00;102281.44;5074578;27;51022;-64
2023/01/26 15:58:46;;;;;;;;;21.50;18.00;;;;;6.21;100.00;102251.28;5075584;27;49698;-67
2023/01/26 16:01:30;;;;;;;;;20.25;18.75;;;;;6.09;100.00;102250.53;5070734;27;49980;-68
2023/01/26 16:03:55;;;;;;;;;21.75;19.25;;;;;5.72;100.00;102206.47;5063925;28;50324;-69
2023/01/26 16:06:24;;;;;;;;;18.00;17.75;;;;;6.12;100.00;102262.06;5067124;28;49761;-70
2023/01/26 16:08:50;;;;;;;;;28.50;22.25;;;;;6.07;100.00;102244.31;5070210;28;49910;-67
2023/01/26 16:11:17;;;;;;;;;22.50;19.50;;;;;6.18;100.00;102257.22;5069101;28;49798;-69
2023/01/26 16:13:45;;;;;;;;;10.50;10.50;;;;;6.11;100.00;102243.72;5069431;28;49987;-68
2023/01/26 16:16:12;;;;;;;;;16.00;15.50;;;;;6.18;100.00;102261.53;5068984;28;51569;-68
2023/01/26 16:18:38;;;;;;;;;21.75;17.75;;;;;6.02;100.00;102211.03;5068069;28;49973;-68
2023/01/26 16:21:15;;;;;;;;;18.00;13.50;;;;;6.28;100.00;102263.91;5068206;28;49915;-70
2023/01/26 16:23:41;;;;;;;;;17.75;15.50;;;;;5.94;100.00;102219.19;5067745;27;50053;-69
2023/01/26 16:26:09;;;;;;;;;13.75;11.75;;;;;6.02;100.00;102234.50;5067400;28;50134;-68
2023/01/26 16:28:35;;;;;;;;;23.00;18.75;;;;;6.37;100.00;102284.41;5067999;28;49696;-69
2023/01/26 16:31:00;;;;;;;;;14.75;13.75;;;;;6.44;100.00;102297.94;5050708;28;49940;-68
2023/01/26 16:33:25;;;;;;;;;14.75;13.00;;;;;6.07;100.00;102216.53;5070307;28;49972;-68
2023/01/26 16:35:52;;;;;;;;;23.75;14.75;;;;;6.05;100.00;102215.53;5070026;28;50896;-67
2023/01/26 16:38:17;;;;;;;;;13.50;13.00;;;;;6.02;100.00;102224.06;5070882;28;49703;-67
2023/01/26 16:40:46;;;;;;;;;10.00;10.00;;;;;6.43;100.00;102297.84;5070757;28;49683;-67
2023/01/26 16:43:23;;;;;;;;;14.50;12.75;;;;;6.47;100.00;102312.91;5069798;27;49757;-69
2023/01/26 16:45:48;;;;;;;;;13.25;10.50;;;;;6.29;100.00;102273.53;5069234;28;49683;-70
2023/01/26 16:48:15;;;;;;;;;20.50;14.50;;;;;5.73;100.00;102177.91;5070992;28;51411;-68
2023/01/26 16:50:42;;;;;;;;;9.75;8.75;;;;;6.02;100.00;102226.69;5074442;27;49859;-69
2023/01/26 16:53:29;;;;;;;;;15.00;11.00;;;;;6.50;100.00;102308.78;5073512;27;49751;-71
2023/01/26 16:55:54;;;;;;;;;13.50;10.75;;;;;6.35;100.00;102294.75;5073076;28;49819;-71
2023/01/26 16:58:20;;;;;;;;;13.50;10.75;;;;;6.16;100.00;102253.59;5054332;27;50009;-71
2023/01/26 17:00:47;;;;;;;;;10.50;9.75;;;;;6.17;100.00;102263.22;5073442;28;49765;-73
2023/01/26 17:03:12;;;;;;;;;11.00;10.75;;;;;5.87;100.00;102248.22;5073053;27;49825;-73
2023/01/26 17:05:39;;;;;;;;;15.00;9.00;;;;;6.12;100.00;102249.00;5072782;27;50935;-71
2023/01/26 17:08:05;;;;;;;;;15.00;12.25;;;;;6.20;100.00;102272.97;5072862;27;49737;-69
2023/01/26 17:10:30;;;;;;;;;12.75;10.00;;;;;6.57;100.00;102337.06;5073175;27;50015;-69
2023/01/26 17:12:56;;;;;;;;;12.75;10.25;;;;;6.20;100.00;102271.25;5072728;28;49956;-70
2023/01/26 17:15:23;;;;;;;;;11.00;10.75;;;;;6.11;100.00;102259.34;5072839;28;50853;-69
2023/01/26 17:17:49;;;;;;;;;9.00;9.00;;;;;6.09;100.00;102256.66;5072999;27;49620;-70
2023/01/26 17:20:14;;;;;;;;;9.75;7.25;;;;;6.10;100.00;102262.78;5072686;28;49878;-70
2023/01/26 17:22:40;;;;;;;;;7.50;6.25;;;;;6.40;100.00;102305.50;5072979;27;49827;-74
2023/01/26 17:25:06;;;;;;;;;7.00;6.00;;;;;6.43;100.00;102303.97;5068264;27;50432;-73
2023/01/26 17:27:33;;;;;;;;;7.25;7.25;;;;;5.85;100.00;102218.56;5059506;27;50815;-76
2023/01/26 17:29:58;;;;;;;;;7.00;7.00;;;;;6.25;100.00;102284.56;5072367;27;49670;-69
2023/01/26 17:32:24;;;;;;;;;11.25;9.75;;;;;6.09;100.00;102274.00;5072730;27;49959;-69
2023/01/26 17:34:53;;;;;;;;;11.25;7.25;;;;;6.31;100.00;102305.81;5071685;28;50801;-71
2023/01/26 17:37:20;;;;;;;;;6.00;5.00;;;;;6.39;100.00;102330.69;5071876;28;49892;-69
2023/01/26 17:39:46;;;;;;;;;6.00;6.00;;;;;5.40;100.00;102160.13;5053680;27;50054;-69
2023/01/26 17:42:12;;;;;;;;;14.00;8.75;;;;;6.29;100.00;102329.22;5071879;28;49759;-68
2023/01/26 17:44:37;;;;;;;;;7.75;5.25;;;;;6.10;100.00;102297.56;5071909;27;51033;-70
2023/01/26 17:47:02;;;;;;;;;6.00;5.25;;;;;5.33;100.00;102197.03;5072172;27;49906;-69
2023/01/26 17:49:28;;;;;;;;;10.00;6.00;;;;;4.86;100.00;102101.13;5054600;28;49711;-67
2023/01/26 17:51:53;;;;;;;;;6.00;6.00;;;;;5.59;100.00;102236.03;5072919;28;50012;-68
2023/01/26 17:54:19;;;;;;;;;8.50;5.75;;;;;5.56;100.00;102229.75;5072337;27;49909;-69
2023/01/26 17:56:44;;;;;;;;;7.00;6.00;;;;;5.62;100.00;102241.47;5053758;28;49703;-69
2023/01/26 17:59:09;;;;;;;;;5.75;5.25;;;;;5.66;100.00;102246.06;5072163;27;49754;-68